Time;durP1;ratioP1;P1;durP2;ratioP2;P2;SDS_P1;SDS_P2;PMS_P1;PMS_P2;Temp;Humidity;BMP_temperature;BMP_pressure;BME280_temperature;BME280_humidity;BME280_pressure;Samples;Min_cycle;Max_cycle;Signal;HPM_P1;HPM_P2
2023/01/16 04:01:50;;;;;;;1.70;0.80;;;3.80;77.80;;;;;;5578754;23;20553;-73
2023/01/16 04:04:25;;;;;;;2.23;0.90;;;3.70;78.10;;;;;;5016580;28;20523;-73
2023/01/16 04:06:58;;;;;;;1.90;1.00;;;3.80;78.10;;;;;;5016594;28;20419;-71
2023/01/16 04:09:30;;;;;;;1.80;0.80;;;3.80;78.20;;;;;;5016554;28;20487;-72
2023/01/16 04:12:00;;;;;;;2.10;1.00;;;3.70;77.80;;;;;;5016324;28;20460;-72
2023/01/16 04:14:28;;;;;;;3.63;0.90;;;3.60;78.70;;;;;;5017112;28;20498;-72
2023/01/16 04:16:57;;;;;;;1.93;0.83;;;3.60;78.50;;;;;;5016311;28;20471;-72
2023/01/16 04:19:24;;;;;;;3.23;0.90;;;3.60;78.50;;;;;;5016058;28;21054;-72
2023/01/16 04:21:51;;;;;;;1.90;0.93;;;3.70;78.30;;;;;;5016144;28;20900;-72
2023/01/16 04:24:19;;;;;;;1.60;0.70;;;3.70;78.30;;;;;;5016440;28;20507;-72
2023/01/16 04:26:45;;;;;;;3.23;1.40;;;3.70;78.10;;;;;;5016503;28;20453;-72
2023/01/16 04:29:12;;;;;;;1.80;0.90;;;3.90;78.10;;;;;;5016515;28;20510;-73
2023/01/16 04:31:39;;;;;;;5.67;2.77;;;4.00;77.50;;;;;;5015872;28;20469;-72
2023/01/16 04:34:07;;;;;;;3.00;1.00;;;3.90;77.10;;;;;;5016486;28;20440;-72
2023/01/16 04:36:33;;;;;;;1.80;0.80;;;4.00;77.30;;;;;;5016301;28;20445;-72
2023/01/16 04:39:00;;;;;;;3.87;1.40;;;4.10;76.70;;;;;;5015911;28;20538;-72
2023/01/16 04:41:40;;;;;;;1.80;0.90;;;4.10;76.80;;;;;;5015510;28;20496;-73
2023/01/16 04:44:08;;;;;;;1.80;0.90;;;4.20;76.70;;;;;;5016002;28;20539;-73
2023/01/16 04:46:36;;;;;;;3.50;0.97;;;4.40;76.10;;;;;;5016133;28;20456;-73
2023/01/16 04:49:03;;;;;;;3.20;0.90;;;4.40;75.30;;;;;;5015911;28;20451;-72
2023/01/16 04:51:31;;;;;;;2.80;0.87;;;4.40;75.50;;;;;;5015668;28;20481;-73
2023/01/16 04:53:58;;;;;;;1.70;0.90;;;4.30;75.70;;;;;;5015738;28;20452;-72
2023/01/16 04:56:25;;;;;;;4.13;1.20;;;4.20;76.00;;;;;;5015719;28;20448;-73
2023/01/16 04:58:53;;;;;;;2.47;0.90;;;4.20;76.10;;;;;;5015538;28;20476;-72
2023/01/16 05:01:20;;;;;;;4.20;1.10;;;4.20;76.00;;;;;;5015787;28;20507;-73
2023/01/16 05:03:47;;;;;;;3.20;1.10;;;4.20;76.40;;;;;;5019679;28;20514;-72
2023/01/16 05:06:13;;;;;;;1.70;0.90;;;4.20;76.10;;;;;;5015747;28;20444;-73
2023/01/16 05:08:41;;;;;;;2.10;0.90;;;4.00;76.50;;;;;;5015484;28;20503;-72
2023/01/16 05:11:08;;;;;;;1.60;0.80;;;4.00;76.90;;;;;;5015281;28;20465;-73
2023/01/16 05:13:35;;;;;;;1.77;0.80;;;3.90;76.70;;;;;;5015310;28;20498;-73
2023/01/16 05:16:03;;;;;;;1.80;0.90;;;3.80;76.90;;;;;;5015185;28;20689;-72
2023/01/16 05:18:29;;;;;;;3.93;1.00;;;3.80;77.10;;;;;;5015092;28;20452;-73
2023/01/16 05:20:56;;;;;;;4.57;1.20;;;3.70;77.30;;;;;;5015020;28;20476;-73
2023/01/16 05:23:23;;;;;;;4.13;1.67;;;3.70;77.50;;;;;;5015046;28;20544;-74
2023/01/16 05:25:51;;;;;;;2.83;1.20;;;3.70;77.60;;;;;;5015609;28;20448;-73
2023/01/16 05:28:17;;;;;;;4.23;1.10;;;3.70;79.80;;;;;;5014769;28;20503;-72
2023/01/16 05:30:44;;;;;;;2.40;1.00;;;3.90;78.20;;;;;;5014961;28;20472;-71
2023/01/16 05:33:10;;;;;;;3.67;1.10;;;3.80;76.90;;;;;;5014920;28;20444;-73
2023/01/16 05:35:37;;;;;;;5.00;1.47;;;3.70;77.10;;;;;;5014621;28;20452;-73
2023/01/16 05:38:04;;;;;;;2.10;0.80;;;3.80;77.20;;;;;;5014810;28;20452;-73
2023/01/16 05:40:30;;;;;;;2.20;0.90;;;3.90;77.40;;;;;;5014522;28;21016;-73
2023/01/16 05:42:59;;;;;;;2.07;0.90;;;3.90;76.80;;;;;;5014427;28;20448;-72
2023/01/16 05:45:26;;;;;;;2.20;1.00;;;4.00;76.80;;;;;;5015022;28;20483;-73
2023/01/16 05:47:52;;;;;;;1.60;0.90;;;4.00;76.20;;;;;;5014974;28;20526;-73
2023/01/16 05:50:19;;;;;;;3.00;0.87;;;4.00;76.00;;;;;;5014710;28;20444;-73
2023/01/16 05:52:46;;;;;;;1.60;0.80;;;3.90;76.00;;;;;;5014757;28;20506;-73
2023/01/16 05:55:12;;;;;;;2.03;1.17;;;3.80;76.30;;;;;;5015811;28;20515;-73
2023/01/16 05:57:39;;;;;;;1.60;1.00;;;4.00;76.30;;;;;;5014758;28;20475;-73
2023/01/16 06:00:08;;;;;;;2.23;0.80;;;4.00;76.00;;;;;;5014603;28;20492;-73
2023/01/16 06:02:36;;;;;;;1.90;0.90;;;4.00;76.20;;;;;;5014540;28;20998;-73
2023/01/16 06:05:03;;;;;;;2.03;0.80;;;4.10;75.40;;;;;;5014950;28;20448;-73
2023/01/16 06:07:30;;;;;;;1.73;0.90;;;4.00;75.30;;;;;;5014446;28;20452;-73
2023/01/16 06:09:56;;;;;;;1.93;0.93;;;4.00;75.30;;;;;;5014534;28;20444;-72
2023/01/16 06:12:23;;;;;;;1.50;0.70;;;4.10;75.70;;;;;;5013913;28;20889;-73
2023/01/16 06:14:50;;;;;;;1.80;0.90;;;4.10;75.20;;;;;;5014246;28;20507;-73
2023/01/16 06:17:18;;;;;;;1.70;0.80;;;4.10;75.40;;;;;;5014145;28;20456;-73
2023/01/16 06:19:45;;;;;;;1.40;0.70;;;4.00;75.30;;;;;;5013662;28;20992;-73
2023/01/16 06:22:13;;;;;;;2.60;0.80;;;3.90;75.50;;;;;;5014054;28;20472;-73
2023/01/16 06:24:40;;;;;;;2.10;0.90;;;3.90;75.60;;;;;;5014678;28;20499;-73
2023/01/16 06:27:07;;;;;;;2.00;0.90;;;3.90;75.70;;;;;;5014285;28;20942;-73
2023/01/16 06:29:33;;;;;;;2.10;0.70;;;3.90;75.40;;;;;;5013946;28;20831;-73
2023/01/16 06:32:00;;;;;;;4.40;1.10;;;4.00;75.60;;;;;;5014916;28;20468;-73
2023/01/16 06:34:28;;;;;;;1.50;0.70;;;4.00;75.00;;;;;;5013871;28;20958;-73
2023/01/16 06:36:55;;;;;;;2.40;0.90;;;4.10;75.30;;;;;;5014090;28;20451;-72
2023/01/16 06:39:21;;;;;;;2.50;1.10;;;4.00;75.60;;;;;;5013676;28;20487;-72
2023/01/16 06:41:48;;;;;;;2.00;1.00;;;3.70;76.20;;;;;;5013832;28;20495;-71
2023/01/16 06:44:15;;;;;;;2.00;1.10;;;3.80;76.80;;;;;;5014399;28;20449;-72
2023/01/16 06:46:41;;;;;;;2.50;1.20;;;3.70;76.50;;;;;;5013672;28;20444;-73
2023/01/16 06:49:09;;;;;;;3.47;1.10;;;3.60;76.80;;;;;;5013648;28;20444;-72
2023/01/16 06:51:37;;;;;;;1.87;0.97;;;3.70;77.50;;;;;;5013260;28;20977;-72
2023/01/16 06:54:04;;;;;;;2.10;1.23;;;3.70;77.20;;;;;;5013123;28;20999;-72
2023/01/16 06:56:31;;;;;;;1.90;1.20;;;3.70;77.30;;;;;;5013662;28;20452;-72
2023/01/16 06:58:58;;;;;;;2.47;2.03;;;3.70;76.90;;;;;;5013429;28;20996;-71
2023/01/16 07:01:24;;;;;;;2.23;1.50;;;3.70;76.90;;;;;;5013480;28;20542;-71
2023/01/16 07:03:51;;;;;;;2.30;1.00;;;3.90;76.80;;;;;;5014010;28;20444;-72
2023/01/16 07:06:18;;;;;;;2.97;1.53;;;3.80;76.30;;;;;;5013775;28;20503;-72
2023/01/16 07:08:47;;;;;;;3.10;2.30;;;3.80;76.60;;;;;;5013637;28;20453;-72
2023/01/16 07:11:13;;;;;;;3.93;2.30;;;3.80;76.60;;;;;;5013452;28;20969;-71
2023/01/16 07:13:40;;;;;;;4.20;3.10;;;3.70;76.90;;;;;;5013911;28;20456;-72
2023/01/16 07:24:22;;;;;;;3.50;2.80;;;3.60;77.60;;;;;;5013396;28;20799;-72
2023/01/16 07:26:53;;;;;;;2.83;1.50;;;3.50;77.70;;;;;;5014049;28;20421;-76
2023/01/16 07:29:21;;;;;;;1.90;1.20;;;3.50;77.90;;;;;;5013843;28;20479;-72
2023/01/16 07:31:47;;;;;;;2.93;1.50;;;3.40;78.30;;;;;;5013162;28;20464;-72
2023/01/16 07:34:14;;;;;;;2.33;1.30;;;3.40;78.60;;;;;;5016092;28;20449;-72
2023/01/16 07:36:41;;;;;;;2.87;1.33;;;3.30;78.70;;;;;;5012999;28;20445;-72
2023/01/16 07:39:07;;;;;;;2.30;1.30;;;3.40;78.70;;;;;;5013088;28;20448;-71
2023/01/16 07:41:35;;;;;;;2.37;1.50;;;3.50;78.40;;;;;;5013214;28;20476;-72
2023/01/16 07:44:02;;;;;;;2.80;1.00;;;3.60;78.60;;;;;;5013275;28;20451;-72
2023/01/16 07:46:29;;;;;;;2.87;1.40;;;3.70;77.80;;;;;;5013182;28;20440;-72
2023/01/16 07:48:56;;;;;;;2.37;1.33;;;3.70;77.90;;;;;;5013311;28;20507;-72
2023/01/16 07:51:23;;;;;;;1.87;1.10;;;3.60;78.10;;;;;;5013238;28;20475;-71
2023/01/16 07:53:50;;;;;;;3.17;1.30;;;3.70;77.80;;;;;;5013243;28;20452;-72
2023/01/16 07:56:17;;;;;;;2.10;1.13;;;3.50;77.80;;;;;;5013271;28;20444;-72
2023/01/16 07:58:45;;;;;;;2.70;1.17;;;3.60;77.90;;;;;;5013240;28;20502;-72
2023/01/16 08:01:12;;;;;;;1.93;1.17;;;3.80;77.80;;;;;;5013260;28;20487;-71
2023/01/16 08:03:39;;;;;;;1.80;0.90;;;3.90;76.40;;;;;;5013547;28;21008;-72
2023/01/16 08:06:06;;;;;;;3.50;1.50;;;4.00;76.30;;;;;;5015188;28;20451;-72
2023/01/16 08:08:33;;;;;;;2.00;1.00;;;3.90;75.60;;;;;;5017047;28;20860;-71
2023/01/16 08:11:34;;;;;;;1.93;1.00;;;4.00;76.20;;;;;;5017030;28;20470;-71
2023/01/16 08:13:50;;;;;;;1.60;0.80;;;4.20;75.80;;;;;;5016650;28;20436;-72
2023/01/16 08:16:17;;;;;;;2.27;1.10;;;4.00;74.90;;;;;;5016346;28;20452;-71
2023/01/16 08:18:48;;;;;;;1.80;0.90;;;4.10;74.90;;;;;;5016253;28;20448;-71
2023/01/16 08:21:15;;;;;;;2.10;1.10;;;3.90;74.80;;;;;;5016084;28;20719;-71
2023/01/16 08:23:42;;;;;;;2.50;1.10;;;3.90;75.30;;;;;;5017728;28;20507;-72
2023/01/16 08:26:09;;;;;;;4.17;1.23;;;4.00;74.70;;;;;;5017128;28;20960;-72
2023/01/16 08:28:35;;;;;;;1.80;0.90;;;3.90;74.90;;;;;;5016834;28;20452;-71
2023/01/16 08:31:07;;;;;;;2.53;1.20;;;4.00;75.00;;;;;;5016979;28;20503;-73
2023/01/16 08:33:35;;;;;;;3.93;2.40;;;4.00;74.60;;;;;;5017428;28;20446;-72
2023/01/16 08:36:02;;;;;;;2.20;1.40;;;4.20;74.30;;;;;;5017410;28;20986;-71
2023/01/16 08:38:29;;;;;;;2.47;1.60;;;4.30;74.90;;;;;;5017078;28;20534;-72
2023/01/16 08:40:55;;;;;;;2.00;1.10;;;4.30;73.80;;;;;;5016219;28;20542;-71
2023/01/16 08:51:48;;;;;;;2.30;1.67;;;4.10;73.60;;;;;;5016148;28;20440;-71
2023/01/16 08:54:14;;;;;;;1.97;1.10;;;4.10;73.40;;;;;;5016356;28;20499;-71
2023/01/16 08:56:42;;;;;;;2.70;1.20;;;4.00;73.60;;;;;;5016123;28;20491;-71
2023/01/16 08:59:09;;;;;;;2.20;1.20;;;4.20;73.60;;;;;;5016362;28;20460;-73
2023/01/16 09:01:38;;;;;;;1.93;1.30;;;4.20;72.90;;;;;;5015953;28;20543;-72
2023/01/16 09:04:05;;;;;;;3.07;1.30;;;4.20;73.10;;;;;;5015718;28;20499;-72
2023/01/16 09:06:35;;;;;;;2.30;1.40;;;4.30;72.80;;;;;;5015856;28;20448;-71
2023/01/16 09:09:03;;;;;;;2.00;1.10;;;4.30;71.90;;;;;;5016144;28;20453;-72
2023/01/16 09:14:13;;;;;;;1.63;0.77;;;4.20;72.40;;;;;;5015245;28;20405;-71
2023/01/16 09:16:41;;;;;;;1.90;1.13;;;4.30;71.90;;;;;;5015363;28;20456;-72
2023/01/16 09:19:08;;;;;;;2.10;0.90;;;4.30;72.40;;;;;;5015766;28;20441;-72
2023/01/16 09:21:35;;;;;;;2.00;0.90;;;4.30;72.70;;;;;;5015217;28;20493;-71
2023/01/16 09:24:02;;;;;;;1.67;0.73;;;4.20;72.10;;;;;;5015521;28;20440;-71
2023/01/16 09:26:30;;;;;;;1.60;0.80;;;4.30;72.40;;;;;;5015325;28;20504;-70
2023/01/16 09:28:57;;;;;;;1.40;0.70;;;4.20;72.60;;;;;;5015055;28;20918;-72
2023/01/16 09:31:23;;;;;;;1.57;0.80;;;4.00;72.70;;;;;;5015090;28;20511;-71
2023/01/16 09:33:52;;;;;;;1.50;0.70;;;4.00;73.30;;;;;;5015175;28;20457;-71
2023/01/16 09:36:19;;;;;;;1.80;0.80;;;4.10;72.90;;;;;;5015219;28;20456;-71
2023/01/16 09:38:46;;;;;;;1.60;0.80;;;4.30;73.30;;;;;;5015402;28;20495;-72
2023/01/16 09:43:35;;;;;;;2.27;0.90;;;4.50;71.80;;;;;;5015395;28;20534;-69
2023/01/16 09:44:06;;;;;;;2.03;0.83;;;4.50;72.00;;;;;;5015029;28;20470;-72
2023/01/16 09:46:37;;;;;;;1.60;0.80;;;4.50;72.40;;;;;;5015050;28;20425;-71
2023/01/16 09:49:13;;;;;;;1.60;0.90;;;4.60;72.60;;;;;;5014635;28;20437;-72
2023/01/16 09:51:42;;;;;;;1.63;0.80;;;4.60;71.40;;;;;;5014537;28;20518;-72
2023/01/16 10:03:42;;;;;;;1.77;0.80;;;4.30;71.40;;;;;;5015736;28;20439;-73
2023/01/16 10:06:21;;;;;;;1.60;0.90;;;4.40;71.50;;;;;;5014049;28;20502;-72
2023/01/16 10:08:58;;;;;;;1.80;0.80;;;4.30;70.80;;;;;;5014424;28;20512;-72
2023/01/16 10:11:32;;;;;;;1.80;0.80;;;4.50;70.90;;;;;;5014363;28;20468;-72
2023/01/16 10:14:15;;;;;;;1.80;0.80;;;4.40;70.60;;;;;;5015069;28;20432;-72
2023/01/16 10:16:55;;;;;;;1.40;0.60;;;4.30;70.00;;;;;;5014407;28;20428;-71
2023/01/16 10:19:39;;;;;;;1.70;0.80;;;4.10;70.00;;;;;;5014844;28;20468;-71
2023/01/16 10:22:22;;;;;;;1.70;0.90;;;4.10;69.70;;;;;;5014556;28;20499;-72
2023/01/16 10:24:58;;;;;;;1.60;0.70;;;4.10;69.60;;;;;;5014601;28;20428;-71
2023/01/16 10:27:33;;;;;;;1.87;0.80;;;4.20;69.40;;;;;;5014455;28;20440;-71
2023/01/16 10:30:05;;;;;;;1.40;0.60;;;4.20;68.20;;;;;;5014380;28;20432;-71
2023/01/16 10:32:37;;;;;;;1.60;0.80;;;4.30;68.50;;;;;;5014304;28;20912;-72
2023/01/16 10:35:07;;;;;;;2.37;0.87;;;4.40;67.60;;;;;;5014576;28;20432;-72
2023/01/16 10:37:37;;;;;;;1.70;1.00;;;4.60;67.30;;;;;;5014660;28;20429;-72
2023/01/16 10:40:13;;;;;;;1.50;0.70;;;4.60;66.60;;;;;;5014072;28;20452;-71
2023/01/16 10:51:02;;;;;;;1.60;0.70;;;4.80;66.10;;;;;;5013672;28;20448;-71
2023/01/16 10:53:31;;;;;;;1.50;0.70;;;5.00;66.20;;;;;;5013640;28;20444;-72
2023/01/16 10:55:58;;;;;;;1.70;0.80;;;4.90;66.50;;;;;;5013606;28;20523;-72
2023/01/16 10:58:28;;;;;;;3.80;0.70;;;5.10;66.60;;;;;;5013862;28;20491;-72
2023/01/16 11:00:59;;;;;;;1.50;0.70;;;5.10;66.30;;;;;;5013658;28;20492;-73
2023/01/16 11:03:33;;;;;;;1.40;0.70;;;5.20;66.40;;;;;;5013436;28;20806;-72
2023/01/16 11:06:12;;;;;;;1.47;0.60;;;5.20;67.00;;;;;;5013891;28;20465;-72
2023/01/16 11:08:41;;;;;;;1.80;0.80;;;5.20;67.20;;;;;;5013636;28;20906;-71
2023/01/16 11:18:27;;;;;;;1.60;0.70;;;5.30;67.90;;;;;;5013371;28;20873;-72
2023/01/16 11:19:30;;;;;;;1.50;0.60;;;5.50;69.80;;;;;;5013032;28;20463;-73
2023/01/16 11:21:59;;;;;;;1.50;0.70;;;5.50;70.70;;;;;;5013191;28;20845;-72
2023/01/16 11:24:32;;;;;;;2.37;0.70;;;5.60;71.40;;;;;;5013434;28;20531;-71
2023/01/16 11:27:00;;;;;;;1.50;0.70;;;5.50;72.50;;;;;;5013362;28;20519;-73
2023/01/16 11:29:31;;;;;;;1.40;0.60;;;5.40;73.50;;;;;;5013250;28;20448;-73
2023/01/16 11:32:01;;;;;;;1.40;0.60;;;5.40;74.30;;;;;;5013188;28;20499;-72
2023/01/16 11:34:29;;;;;;;1.40;0.70;;;5.30;74.60;;;;;;5013438;28;20448;-72
2023/01/16 11:36:59;;;;;;;1.40;0.60;;;5.30;75.00;;;;;;5013283;28;20444;-72
2023/01/16 11:39:29;;;;;;;1.70;0.70;;;5.30;74.50;;;;;;5013178;28;20479;-72
2023/01/16 11:41:58;;;;;;;1.50;0.67;;;5.40;74.10;;;;;;5016429;28;20492;-73
2023/01/16 11:47:15;;;;;;;2.57;1.80;;;5.50;73.90;;;;;;5017114;28;20451;-71
2023/01/16 11:49:46;;;;;;;3.07;1.00;;;5.50;73.90;;;;;;5017272;28;20448;-74
2023/01/16 11:52:26;;;;;;;1.47;0.70;;;5.50;74.30;;;;;;5017133;28;20464;-73
2023/01/16 11:54:55;;;;;;;1.83;1.00;;;5.50;74.20;;;;;;5017322;28;20436;-73
2023/01/16 11:57:37;;;;;;;1.73;0.70;;;5.60;75.10;;;;;;5017354;28;20484;-72
2023/01/16 12:00:35;;;;;;;1.40;0.60;;;5.70;78.20;;;;;;5018264;28;20433;-72
2023/01/16 12:03:26;;;;;;;1.40;0.60;;;5.80;74.30;;;;;;5016938;28;20443;-71
2023/01/16 12:06:02;;;;;;;2.03;0.90;;;5.70;74.80;;;;;;5016462;28;20448;-71
2023/01/16 12:08:52;;;;;;;2.00;0.80;;;5.60;75.50;;;;;;5016524;28;20431;-70
2023/01/16 12:11:32;;;;;;;1.50;0.70;;;5.70;76.30;;;;;;5016200;28;20556;-70
2023/01/16 12:14:18;;;;;;;1.60;1.03;;;5.80;76.10;;;;;;5016495;28;20514;-71
2023/01/16 12:16:56;;;;;;;1.60;0.70;;;5.70;75.70;;;;;;5016414;28;20424;-70
2023/01/16 12:19:43;;;;;;;1.50;0.63;;;5.80;75.80;;;;;;5016475;28;20486;-71
2023/01/16 12:22:20;;;;;;;1.40;0.60;;;5.80;76.10;;;;;;5016848;28;20492;-70
2023/01/16 12:24:54;;;;;;;1.50;0.60;;;5.70;75.90;;;;;;5016954;28;20433;-73
2023/01/16 12:27:34;;;;;;;2.67;0.87;;;5.80;76.70;;;;;;5017715;28;20856;-73
2023/01/16 12:30:17;;;;;;;1.40;0.60;;;5.90;76.00;;;;;;5018392;28;20428;-71
2023/01/16 12:32:58;;;;;;;1.90;0.90;;;5.90;75.90;;;;;;5016176;28;21017;-71
2023/01/16 12:35:37;;;;;;;1.40;0.70;;;5.90;76.30;;;;;;5016425;28;20858;-71
2023/01/16 12:38:16;;;;;;;3.33;1.00;;;6.00;76.10;;;;;;5016867;28;20441;-70
2023/01/16 12:44:20;;;;;;;1.43;0.70;;;6.00;76.30;;;;;;5016573;28;20408;-72
2023/01/16 12:46:56;;;;;;;1.40;0.60;;;6.10;75.80;;;;;;5018288;28;20495;-72
2023/01/16 12:49:38;;;;;;;1.40;0.60;;;6.10;76.10;;;;;;5018537;28;20436;-72
2023/01/16 12:52:25;;;;;;;1.40;0.60;;;6.20;75.40;;;;;;5019027;28;20496;-72
2023/01/16 12:55:05;;;;;;;1.40;0.60;;;6.30;75.70;;;;;;5019485;28;20441;-72
2023/01/16 12:58:00;;;;;;;1.40;0.60;;;6.30;74.90;;;;;;5020231;28;20436;-73
2023/01/16 13:00:33;;;;;;;1.50;0.60;;;6.30;74.50;;;;;;5017436;28;20452;-72
2023/01/16 13:03:10;;;;;;;1.60;0.60;;;6.30;75.40;;;;;;5020200;28;20771;-73
2023/01/16 13:05:40;;;;;;;1.40;0.60;;;6.30;74.90;;;;;;5017451;28;20428;-73
2023/01/16 13:08:16;;;;;;;1.40;0.60;;;6.40;75.00;;;;;;5018051;28;20491;-73
2023/01/16 13:13:33;;;;;;;1.50;0.60;;;6.50;74.50;;;;;;5018206;28;20488;-73
2023/01/16 13:16:05;;;;;;;1.50;0.60;;;6.50;74.30;;;;;;5016867;28;20479;-73
2023/01/16 13:18:39;;;;;;;1.50;0.60;;;6.60;74.70;;;;;;5018490;28;20420;-73
2023/01/16 13:21:10;;;;;;;1.40;0.60;;;7.10;74.30;;;;;;5019205;28;20893;-72
2023/01/16 13:23:43;;;;;;;1.47;0.60;;;7.20;72.10;;;;;;5018919;28;20452;-72
2023/01/16 13:26:14;;;;;;;1.70;0.70;;;7.70;71.00;;;;;;5021013;28;20933;-72
2023/01/16 13:28:46;;;;;;;1.60;0.60;;;8.50;68.60;;;;;;5019022;28;20886;-73
2023/01/16 13:31:23;;;;;;;1.50;0.63;;;9.00;67.10;;;;;;5019368;28;20833;-73
2023/01/16 13:33:56;;;;;;;2.00;0.70;;;9.60;65.20;;;;;;5018364;28;20432;-72
2023/01/16 13:37:00;;;;;;;1.50;0.70;;;10.50;63.30;;;;;;5019055;28;20855;-72
2023/01/16 13:40:03;;;;;;;1.53;0.67;;;12.10;58.60;;;;;;5018547;28;20433;-74
2023/01/16 13:42:32;;;;;;;1.80;0.70;;;12.20;56.90;;;;;;5018691;28;20563;-70
2023/01/16 13:47:49;;;;;;;1.80;0.80;;;12.70;56.00;;;;;;5019305;28;20928;-71
2023/01/16 13:50:24;;;;;;;1.40;0.60;;;11.90;56.30;;;;;;5018335;28;20497;-72
2023/01/16 13:52:54;;;;;;;2.10;0.60;;;11.40;58.40;;;;;;5019353;28;20878;-73
2023/01/16 13:55:30;;;;;;;1.40;0.60;;;10.70;58.60;;;;;;5018614;28;20429;-73
2023/01/16 13:58:08;;;;;;;1.50;0.60;;;9.80;62.60;;;;;;5018407;28;20433;-72
2023/01/16 14:00:38;;;;;;;1.40;0.60;;;10.20;60.50;;;;;;5019007;28;20809;-73
2023/01/16 14:03:21;;;;;;;1.40;0.60;;;10.10;60.80;;;;;;5017114;28;20481;-74
2023/01/16 14:05:50;;;;;;;1.40;0.60;;;9.10;62.60;;;;;;5018340;28;20441;-73
2023/01/16 14:11:35;;;;;;;1.40;0.60;;;9.60;63.00;;;;;;5020746;28;20490;-73
2023/01/16 14:16:30;;;;;;;1.80;0.80;;;9.50;62.10;;;;;;5017092;28;20792;-71
2023/01/16 14:17:09;;;;;;;1.57;0.70;;;8.30;65.00;;;;;;5016647;28;20448;-73
2023/01/16 14:19:42;;;;;;;1.40;0.60;;;7.70;67.40;;;;;;5017444;28;20429;-72
2023/01/16 14:25:06;;;;;;;1.40;0.60;;;7.80;68.20;;;;;;5019344;28;20969;-72
2023/01/16 14:27:37;;;;;;;1.40;0.60;;;7.90;68.30;;;;;;5018763;28;20950;-73
2023/01/16 14:30:06;;;;;;;1.40;0.60;;;7.90;68.70;;;;;;5017958;28;20495;-73
2023/01/16 14:32:36;;;;;;;2.20;0.70;;;7.70;69.00;;;;;;5017784;28;20464;-73
2023/01/16 14:35:13;;;;;;;1.50;0.70;;;7.10;70.80;;;;;;5018245;28;20495;-71
2023/01/16 14:37:42;;;;;;;1.40;0.60;;;6.80;72.20;;;;;;5018449;28;20437;-73
2023/01/16 14:40:21;;;;;;;1.47;0.70;;;6.60;73.10;;;;;;5018400;28;20449;-70
2023/01/16 14:57:13;;;;;;;1.70;0.70;;;6.20;74.00;;;;;;5017636;28;20443;-72
2023/01/16 14:59:43;;;;;;;1.40;0.60;;;6.20;74.00;;;;;;5016236;28;20435;-71
2023/01/16 15:02:19;;;;;;;1.40;0.60;;;6.10;74.80;;;;;;5015645;28;20499;-71
2023/01/16 15:04:52;;;;;;;1.50;0.60;;;6.10;74.40;;;;;;5016577;28;20439;-72
2023/01/16 15:07:25;;;;;;;1.40;0.60;;;6.00;75.00;;;;;;5014855;28;20441;-70
2023/01/16 15:10:14;;;;;;;1.40;0.60;;;6.20;77.40;;;;;;5013618;28;20914;-68
2023/01/16 15:12:43;;;;;;;1.40;0.70;;;6.10;74.40;;;;;;5008896;28;20518;-71
2023/01/16 15:15:25;;;;;;;2.10;0.90;;;6.00;74.60;;;;;;5016778;28;20832;-72
2023/01/16 15:23:27;;;;;;;1.40;0.60;;;6.00;74.60;;;;;;5017557;28;20542;-72
2023/01/16 15:26:21;;;;;;;1.40;0.60;;;6.00;74.70;;;;;;5017621;28;20436;-73
2023/01/16 15:29:03;;;;;;;1.40;0.60;;;6.00;74.50;;;;;;5017358;28;20983;-73
2023/01/16 15:31:33;;;;;;;1.80;0.70;;;6.00;74.90;;;;;;5017321;28;20526;-72
2023/01/16 15:34:02;;;;;;;1.50;0.70;;;6.00;75.20;;;;;;5017179;28;20875;-71
2023/01/16 15:36:35;;;;;;;1.47;0.60;;;5.90;76.60;;;;;;5017179;28;20818;-72
2023/01/16 15:39:22;;;;;;;1.40;0.60;;;5.80;78.00;;;;;;5017542;28;20486;-73
2023/01/16 15:47:58;;;;;;;1.40;0.50;;;5.70;80.50;;;;;;5017105;28;20896;-72
2023/01/16 15:50:33;;;;;;;1.50;0.60;;;5.40;82.30;;;;;;5016723;28;20424;-72
2023/01/16 15:53:01;;;;;;;1.90;1.07;;;5.20;83.50;;;;;;5016708;28;20424;-72
2023/01/16 15:55:31;;;;;;;1.47;0.70;;;5.10;84.60;;;;;;5016832;28;20440;-73
2023/01/16 15:58:00;;;;;;;1.60;0.73;;;5.10;84.80;;;;;;5021031;28;20475;-71
2023/01/16 16:00:31;;;;;;;2.53;1.30;;;5.10;84.90;;;;;;5022802;28;20457;-72
2023/01/16 16:02:59;;;;;;;1.50;0.73;;;5.20;85.10;;;;;;5021197;28;20495;-71
2023/01/16 16:05:28;;;;;;;1.70;0.90;;;5.20;85.40;;;;;;5020121;28;20456;-72
2023/01/16 16:07:55;;;;;;;1.50;0.60;;;5.20;85.70;;;;;;5021674;28;20441;-74
2023/01/16 16:13:11;;;;;;;1.60;0.77;;;4.90;86.80;;;;;;5022227;28;20485;-71
2023/01/16 16:18:23;;;;;;;1.50;0.70;;;4.70;88.70;;;;;;5021326;28;20473;-71
2023/01/16 16:20:51;;;;;;;1.50;0.60;;;4.60;88.80;;;;;;5022804;28;20502;-71
2023/01/16 16:23:20;;;;;;;1.83;0.80;;;4.50;89.10;;;;;;5021728;28;20491;-71
2023/01/16 16:25:49;;;;;;;1.60;0.70;;;4.50;89.60;;;;;;5019952;28;20452;-72
2023/01/16 16:28:24;;;;;;;1.40;0.60;;;4.40;90.00;;;;;;5020862;28;20456;-72
2023/01/16 16:30:57;;;;;;;1.40;0.60;;;4.50;90.30;;;;;;5021037;28;20468;-70
2023/01/16 16:33:25;;;;;;;1.57;0.60;;;4.60;90.00;;;;;;5022087;28;20432;-73
2023/01/16 16:35:54;;;;;;;1.50;0.70;;;4.60;90.10;;;;;;5022081;28;20453;-71
2023/01/16 16:38:24;;;;;;;1.53;0.70;;;4.50;90.00;;;;;;5026413;28;20447;-72
2023/01/16 16:44:34;;;;;;;1.70;1.00;;;4.50;89.80;;;;;;5015680;28;20408;-71
2023/01/16 16:47:01;;;;;;;2.53;0.80;;;4.50;90.30;;;;;;5015819;28;20439;-71
2023/01/16 16:49:30;;;;;;;1.60;0.80;;;4.30;91.40;;;;;;5015669;28;20471;-71
2023/01/16 16:52:21;;;;;;;1.87;0.80;;;4.40;92.00;;;;;;5015553;28;20613;-69
2023/01/16 16:54:53;;;;;;;1.60;0.77;;;4.40;92.30;;;;;;5015400;28;20443;-72
2023/01/16 16:57:20;;;;;;;1.40;0.70;;;4.40;91.80;;;;;;5015568;28;20472;-70
2023/01/16 16:59:49;;;;;;;1.50;0.70;;;4.20;92.00;;;;;;5015462;28;20448;-70
2023/01/16 17:02:16;;;;;;;1.60;0.90;;;4.10;92.70;;;;;;5015029;28;20499;-70
2023/01/16 17:04:43;;;;;;;1.57;0.77;;;4.20;93.30;;;;;;5015579;28;20460;-71
2023/01/16 17:07:10;;;;;;;1.60;0.70;;;4.20;93.40;;;;;;5015371;28;20953;-72
2023/01/16 17:09:37;;;;;;;1.50;0.70;;;4.20;92.90;;;;;;5015429;28;20870;-70
2023/01/16 17:12:14;;;;;;;1.63;0.70;;;4.20;93.00;;;;;;5015271;28;20465;-72
2023/01/16 17:14:45;;;;;;;1.70;0.90;;;4.20;93.00;;;;;;5017457;28;20440;-72
2023/01/16 17:17:14;;;;;;;1.60;0.80;;;4.20;93.00;;;;;;5017053;28;20452;-72
2023/01/16 17:19:41;;;;;;;1.80;0.90;;;4.20;93.30;;;;;;5017159;28;20918;-71
2023/01/16 17:22:09;;;;;;;1.60;0.80;;;4.20;93.40;;;;;;5017166;28;20488;-73
2023/01/16 17:24:36;;;;;;;1.67;0.83;;;4.20;93.60;;;;;;5018614;28;20463;-72
2023/01/16 17:27:07;;;;;;;1.50;0.80;;;4.20;92.80;;;;;;5017559;28;20452;-73
2023/01/16 17:29:34;;;;;;;2.00;1.00;;;4.20;93.10;;;;;;5017083;28;20437;-72
2023/01/16 17:32:05;;;;;;;2.00;0.80;;;4.10;93.40;;;;;;5016776;28;20460;-72
2023/01/16 17:34:34;;;;;;;1.90;0.83;;;4.10;93.80;;;;;;5017567;28;20437;-72
2023/01/16 17:37:01;;;;;;;1.57;0.70;;;4.00;94.10;;;;;;5017548;28;20453;-72
2023/01/16 17:39:29;;;;;;;1.50;0.70;;;4.00;94.20;;;;;;5017384;28;20441;-72
2023/01/16 17:47:26;;;;;;;1.60;0.73;;;4.00;93.50;;;;;;5017061;28;20412;-72
2023/01/16 17:52:38;;;;;;;1.50;0.70;;;3.90;94.20;;;;;;5016289;28;20531;-72
2023/01/16 17:57:55;;;;;;;1.60;0.70;;;4.10;94.10;;;;;;5001117;28;20442;-76
2023/01/16 18:00:22;;;;;;;1.57;0.70;;;3.90;93.50;;;;;;5016639;28;20822;-72
2023/01/16 18:02:49;;;;;;;1.70;0.70;;;4.00;93.90;;;;;;5016874;28;20500;-71
2023/01/16 18:05:18;;;;;;;1.40;0.70;;;4.10;93.50;;;;;;5016074;28;20452;-74
2023/01/16 18:07:45;;;;;;;1.60;0.70;;;4.10;93.20;;;;;;5016850;28;20456;-76
2023/01/16 18:10:11;;;;;;;1.80;0.80;;;4.00;93.20;;;;;;5016624;28;20453;-76
2023/01/16 18:18:06;;;;;;;1.50;0.70;;;4.20;92.80;;;;;;5015924;28;20498;-72
2023/01/16 18:20:38;;;;;;;1.70;0.80;;;4.20;92.70;;;;;;5016263;28;20449;-72
2023/01/16 18:23:05;;;;;;;1.93;0.83;;;4.30;92.50;;;;;;5016947;28;20465;-74
2023/01/16 18:25:32;;;;;;;1.50;0.60;;;4.30;92.40;;;;;;5016453;28;20452;-73
2023/01/16 18:27:58;;;;;;;2.43;1.17;;;4.40;91.90;;;;;;5015837;28;20452;-74
2023/01/16 18:30:25;;;;;;;1.50;0.60;;;4.40;91.70;;;;;;5016539;28;20475;-73
2023/01/16 18:32:52;;;;;;;1.40;0.60;;;4.30;90.90;;;;;;5016694;28;20444;-71
2023/01/16 18:35:19;;;;;;;1.50;0.60;;;4.30;91.50;;;;;;5017319;28;21123;-71
2023/01/16 19:01:54;;;;;;;1.40;0.60;;;4.00;91.40;;;;;;5016968;28;20441;-72
2023/01/16 19:02:42;;;;;;;1.50;0.70;;;3.90;91.80;;;;;;5016006;28;21027;-72
2023/01/16 19:05:09;;;;;;;1.60;0.80;;;4.00;91.90;;;;;;5016163;28;20428;-69
2023/01/16 19:07:43;;;;;;;1.80;0.80;;;4.00;92.10;;;;;;5016032;28;20864;-72
2023/01/16 19:10:15;;;;;;;1.50;0.70;;;4.10;92.00;;;;;;5017130;28;20460;-72
2023/01/16 19:12:43;;;;;;;1.60;0.80;;;4.10;90.80;;;;;;5017918;28;20460;-72
2023/01/16 19:15:11;;;;;;;1.70;0.80;;;4.00;90.80;;;;;;5017200;28;20457;-72
2023/01/16 19:17:38;;;;;;;2.90;1.33;;;4.00;91.50;;;;;;5017349;28;20453;-72
2023/01/16 19:20:05;;;;;;;1.70;0.80;;;4.10;91.40;;;;;;5016293;28;20864;-71
2023/01/16 19:22:32;;;;;;;1.60;0.70;;;4.10;91.40;;;;;;5016333;28;20472;-71
2023/01/16 19:24:58;;;;;;;1.60;0.70;;;4.20;90.90;;;;;;5017277;28;20453;-73
2023/01/16 19:27:26;;;;;;;1.50;0.60;;;4.20;90.50;;;;;;5016432;28;20455;-74
2023/01/16 19:29:53;;;;;;;2.00;1.17;;;4.20;90.60;;;;;;5016412;28;20475;-74
2023/01/16 19:32:20;;;;;;;1.60;0.80;;;4.10;90.40;;;;;;5017081;28;20476;-72